Time;durP1;ratioP1;P1;durP2;ratioP2;P2;SDS_P1;SDS_P2;PMS_P1;PMS_P2;Temp;Humidity;BMP_temperature;BMP_pressure;BME280_temperature;BME280_humidity;BME280_pressure;Samples;Min_cycle;Max_cycle;Signal;HPM_P1;HPM_P2
2022/03/30 00:01:12;;;;;;;31.27;4.70;;;;;;;;;;5078589;28;20469;-68
2022/03/30 00:03:38;;;;;;;32.85;6.28;;;;;;;;;;5088045;28;20016;-67
2022/03/30 00:06:04;;;;;;;38.72;5.53;;;;;;;;;;5088565;28;20445;-67
2022/03/30 00:08:31;;;;;;;18.58;4.45;;;;;;;;;;5083057;28;20107;-67
2022/03/30 00:10:57;;;;;;;26.63;5.15;;;;;;;;;;5092579;28;20059;-67
2022/03/30 00:13:23;;;;;;;22.02;5.53;;;;;;;;;;5070577;28;20020;-67
2022/03/30 00:15:49;;;;;;;33.05;4.97;;;;;;;;;;5084216;28;20031;-67
2022/03/30 00:18:16;;;;;;;49.15;6.00;;;;;;;;;;5086589;28;20016;-67
2022/03/30 00:20:42;;;;;;;31.30;5.35;;;;;;;;;;5082472;28;20032;-67
2022/03/30 00:23:08;;;;;;;33.70;5.70;;;;;;;;;;5081806;28;20024;-67
2022/03/30 00:25:34;;;;;;;36.13;5.40;;;;;;;;;;5082744;28;20028;-67
2022/03/30 00:28:02;;;;;;;21.25;4.38;;;;;;;;;;5089346;28;20106;-67
2022/03/30 00:30:28;;;;;;;25.30;4.97;;;;;;;;;;5073339;28;20032;-67
2022/03/30 00:32:54;;;;;;;28.02;5.00;;;;;;;;;;5078697;28;20028;-67
2022/03/30 00:35:20;;;;;;;22.48;4.20;;;;;;;;;;5082302;28;20047;-68
2022/03/30 00:37:46;;;;;;;27.38;5.60;;;;;;;;;;5075078;28;20029;-67
2022/03/30 00:40:14;;;;;;;40.15;5.70;;;;;;;;;;5081944;28;20044;-68
2022/03/30 00:42:40;;;;;;;28.95;5.68;;;;;;;;;;5081207;28;20020;-67
2022/03/30 00:45:10;;;;;;;41.47;5.72;;;;;;;;;;5080303;28;20021;-68
2022/03/30 00:47:37;;;;;;;29.77;4.97;;;;;;;;;;5082450;28;20516;-68
2022/03/30 00:50:04;;;;;;;37.25;6.47;;;;;;;;;;5086039;28;20050;-68
2022/03/30 00:52:30;;;;;;;22.67;4.05;;;;;;;;;;5080367;28;20024;-68
2022/03/30 00:54:57;;;;;;;30.70;5.65;;;;;;;;;;5082198;28;20020;-67
2022/03/30 00:57:23;;;;;;;24.27;5.45;;;;;;;;;;5100686;28;20016;-68
2022/03/30 00:59:50;;;;;;;35.72;5.05;;;;;;;;;;5075095;28;20064;-68
2022/03/30 01:02:16;;;;;;;29.52;5.35;;;;;;;;;;5081084;28;20012;-68
2022/03/30 01:04:45;;;;;;;35.88;4.72;;;;;;;;;;5071722;28;20389;-67
2022/03/30 01:07:11;;;;;;;29.25;4.95;;;;;;;;;;5076774;28;20072;-67
2022/03/30 01:09:37;;;;;;;27.02;5.47;;;;;;;;;;5077755;28;20025;-67
2022/03/30 01:12:04;;;;;;;32.70;4.88;;;;;;;;;;5070795;28;20025;-67
2022/03/30 01:14:30;;;;;;;41.53;6.57;;;;;;;;;;5087983;28;20514;-67
2022/03/30 01:16:56;;;;;;;36.60;4.50;;;;;;;;;;5078609;28;20046;-68
2022/03/30 01:19:22;;;;;;;29.25;5.85;;;;;;;;;;5086077;28;20120;-67
2022/03/30 01:21:48;;;;;;;27.33;4.57;;;;;;;;;;5082166;28;20148;-67
2022/03/30 01:24:14;;;;;;;40.03;5.45;;;;;;;;;;5074842;28;20062;-68
2022/03/30 01:26:41;;;;;;;22.13;4.45;;;;;;;;;;5083942;28;20026;-67
2022/03/30 01:34:38;;;;;;;26.85;6.03;;;;;;;;;;5081190;28;20043;-67
2022/03/30 01:37:05;;;;;;;35.60;4.93;;;;;;;;;;5079173;28;20060;-67
2022/03/30 01:39:31;;;;;;;23.35;5.82;;;;;;;;;;5082946;28;20032;-67
2022/03/30 01:41:57;;;;;;;26.80;5.20;;;;;;;;;;5089322;28;20119;-67
2022/03/30 01:44:24;;;;;;;31.60;5.15;;;;;;;;;;5097304;28;20025;-67
2022/03/30 01:46:50;;;;;;;38.63;5.50;;;;;;;;;;5077227;28;20056;-67
2022/03/30 01:49:21;;;;;;;29.70;5.63;;;;;;;;;;5075046;28;20020;-68
2022/03/30 01:51:47;;;;;;;;;;;;;;;;;;5078524;28;20044;-68
2022/03/30 01:54:13;;;;;;;39.42;5.47;;;;;;;;;;5076808;28;19959;-68
2022/03/30 01:56:39;;;;;;;23.13;4.72;;;;;;;;;;5080855;28;20392;-67
2022/03/30 01:59:06;;;;;;;44.33;5.85;;;;;;;;;;5077231;28;20024;-67
2022/03/30 02:01:32;;;;;;;22.95;5.45;;;;;;;;;;5088294;28;20464;-68
2022/03/30 02:04:00;;;;;;;28.23;5.68;;;;;;;;;;5080471;28;20474;-68
2022/03/30 02:06:26;;;;;;;45.33;5.18;;;;;;;;;;5081851;28;20024;-68
2022/03/30 02:08:52;;;;;;;32.25;5.80;;;;;;;;;;5077920;28;20090;-67
2022/03/30 02:11:18;;;;;;;31.58;6.28;;;;;;;;;;5086962;28;20503;-68
2022/03/30 02:13:44;;;;;;;37.55;6.35;;;;;;;;;;5108456;28;20052;-67
2022/03/30 02:16:10;;;;;;;38.17;5.80;;;;;;;;;;5080111;28;20099;-68
2022/03/30 02:18:36;;;;;;;50.75;6.65;;;;;;;;;;5079925;28;20477;-68
2022/03/30 02:21:02;;;;;;;31.10;5.05;;;;;;;;;;5080236;28;20037;-68
2022/03/30 02:23:29;;;;;;;27.00;5.07;;;;;;;;;;5079991;28;20241;-68
2022/03/30 02:25:55;;;;;;;23.20;5.60;;;;;;;;;;5071528;28;20028;-68
2022/03/30 02:28:21;;;;;;;39.03;5.82;;;;;;;;;;5098174;28;20037;-68
2022/03/30 02:30:47;;;;;;;26.70;5.40;;;;;;;;;;5084309;28;20036;-68
2022/03/30 02:33:13;;;;;;;20.70;4.88;;;;;;;;;;5086251;28;20463;-67
2022/03/30 02:35:39;;;;;;;25.17;5.60;;;;;;;;;;5087019;28;20032;-67
2022/03/30 02:38:06;;;;;;;29.65;5.60;;;;;;;;;;5084578;28;20508;-67
2022/03/30 02:40:32;;;;;;;21.13;4.72;;;;;;;;;;5088358;28;20044;-68
2022/03/30 02:42:58;;;;;;;36.70;6.35;;;;;;;;;;5071566;28;20162;-68
2022/03/30 02:45:24;;;;;;;24.52;5.65;;;;;;;;;;5088421;28;20036;-68
2022/03/30 02:50:35;;;;;;;25.00;5.70;;;;;;;;;;5084830;28;20588;-67
2022/03/30 02:53:01;;;;;;;28.15;5.28;;;;;;;;;;5085337;28;20024;-68
2022/03/30 02:55:27;;;;;;;28.88;4.93;;;;;;;;;;5092730;28;20019;-67
2022/03/30 02:57:53;;;;;;;28.92;5.63;;;;;;;;;;5083613;28;20508;-67
2022/03/30 03:00:19;;;;;;;33.15;5.93;;;;;;;;;;5090883;28;20028;-68
2022/03/30 03:02:45;;;;;;;26.08;5.53;;;;;;;;;;5084502;28;20051;-67
2022/03/30 03:05:11;;;;;;;29.80;6.05;;;;;;;;;;5073795;28;20233;-68
2022/03/30 03:07:37;;;;;;;18.30;4.95;;;;;;;;;;5075727;28;20473;-67
2022/03/30 03:10:03;;;;;;;25.40;4.97;;;;;;;;;;5083913;28;20074;-68
2022/03/30 03:12:29;;;;;;;29.52;5.93;;;;;;;;;;5089332;28;20027;-68
2022/03/30 03:14:55;;;;;;;33.15;6.00;;;;;;;;;;5075960;28;20066;-68
2022/03/30 03:17:21;;;;;;;21.55;5.53;;;;;;;;;;5084053;28;20077;-67
2022/03/30 03:19:47;;;;;;;29.90;4.50;;;;;;;;;;5084050;28;20036;-68
2022/03/30 03:22:13;;;;;;;25.58;5.63;;;;;;;;;;5078648;28;20040;-68
2022/03/30 03:24:39;;;;;;;28.75;5.18;;;;;;;;;;5079566;28;20105;-68
2022/03/30 03:27:05;;;;;;;27.15;5.55;;;;;;;;;;5085050;28;20559;-68
2022/03/30 03:29:31;;;;;;;35.63;5.60;;;;;;;;;;5102226;28;20031;-68
2022/03/30 03:31:57;;;;;;;31.40;5.28;;;;;;;;;;5073302;28;20051;-68
2022/03/30 03:34:23;;;;;;;32.47;6.13;;;;;;;;;;5090766;28;20432;-67
2022/03/30 03:36:49;;;;;;;32.05;5.18;;;;;;;;;;5092428;28;20027;-68
2022/03/30 03:39:16;;;;;;;22.05;5.38;;;;;;;;;;5083195;28;20036;-68
2022/03/30 03:41:43;;;;;;;26.00;5.40;;;;;;;;;;5088926;28;20020;-68
2022/03/30 03:44:10;;;;;;;20.75;5.25;;;;;;;;;;5092359;28;20024;-68
2022/03/30 03:46:36;;;;;;;23.63;5.07;;;;;;;;;;5086956;28;20389;-68
2022/03/30 03:49:02;;;;;;;26.65;5.72;;;;;;;;;;5069587;28;20036;-67
2022/03/30 03:51:28;;;;;;;32.60;5.30;;;;;;;;;;5074632;28;20062;-68
2022/03/30 03:53:54;;;;;;;18.77;4.78;;;;;;;;;;5072150;28;20123;-67
2022/03/30 03:56:21;;;;;;;38.83;6.07;;;;;;;;;;5080557;28;20035;-68
2022/03/30 03:58:49;;;;;;;26.10;4.97;;;;;;;;;;5081544;28;20032;-68
2022/03/30 04:01:15;;;;;;;33.70;4.88;;;;;;;;;;5074390;28;20028;-68
2022/03/30 04:03:42;;;;;;;33.97;5.40;;;;;;;;;;5087376;28;20028;-68
2022/03/30 04:06:08;;;;;;;28.38;5.65;;;;;;;;;;5078338;28;20043;-68
2022/03/30 04:11:57;;;;;;;35.63;6.22;;;;;;;;;;5075052;28;20031;-68
2022/03/30 04:14:23;;;;;;;24.88;4.15;;;;;;;;;;5099814;28;20028;-68
2022/03/30 04:16:49;;;;;;;43.60;5.72;;;;;;;;;;5081350;28;20027;-67
2022/03/30 04:19:15;;;;;;;24.40;5.28;;;;;;;;;;5089320;28;20032;-68
2022/03/30 04:21:45;;;;;;;33.22;5.32;;;;;;;;;;5075745;28;20161;-67
2022/03/30 04:24:11;;;;;;;22.98;4.60;;;;;;;;;;5077054;28;20047;-68
2022/03/30 04:26:38;;;;;;;28.98;4.97;;;;;;;;;;5086337;28;20084;-67
2022/03/30 04:29:04;;;;;;;19.65;5.05;;;;;;;;;;5087537;28;20020;-67
2022/03/30 04:31:30;;;;;;;28.15;6.22;;;;;;;;;;5079388;28;20484;-68
2022/03/30 04:33:56;;;;;;;29.63;5.50;;;;;;;;;;5082973;28;20028;-68
2022/03/30 04:36:23;;;;;;;36.38;6.22;;;;;;;;;;5075880;28;20024;-68
2022/03/30 04:38:49;;;;;;;18.73;5.35;;;;;;;;;;5076293;28;20064;-68
2022/03/30 04:41:15;;;;;;;37.60;7.25;;;;;;;;;;5087271;28;20036;-68
2022/03/30 04:43:41;;;;;;;30.10;6.30;;;;;;;;;;5091973;28;20028;-68
2022/03/30 04:46:08;;;;;;;24.60;5.70;;;;;;;;;;5087607;28;20034;-68
2022/03/30 04:48:34;;;;;;;31.38;6.82;;;;;;;;;;5080167;28;20115;-68
2022/03/30 04:51:00;;;;;;;23.40;5.22;;;;;;;;;;5072470;28;20031;-68
2022/03/30 04:53:27;;;;;;;30.95;6.15;;;;;;;;;;5082764;28;20107;-68
2022/03/30 04:55:53;;;;;;;36.92;6.35;;;;;;;;;;5086533;28;20029;-68
2022/03/30 04:58:18;;;;;;;32.00;5.82;;;;;;;;;;5087174;28;20021;-68
2022/03/30 05:00:45;;;;;;;22.73;5.18;;;;;;;;;;5084818;28;20068;-69
2022/03/30 05:03:11;;;;;;;29.55;6.00;;;;;;;;;;5082162;28;20033;-68
2022/03/30 05:05:37;;;;;;;25.45;6.32;;;;;;;;;;5068988;28;20074;-69
2022/03/30 05:08:03;;;;;;;36.70;4.88;;;;;;;;;;5082727;28;20036;-68
2022/03/30 05:10:29;;;;;;;18.08;5.47;;;;;;;;;;5082854;28;20481;-68
2022/03/30 05:12:55;;;;;;;23.15;5.28;;;;;;;;;;5078350;28;20024;-69
2022/03/30 05:15:23;;;;;;;20.25;5.07;;;;;;;;;;5085703;28;20024;-68
2022/03/30 05:17:49;;;;;;;27.88;5.18;;;;;;;;;;5069303;28;20028;-68
2022/03/30 05:20:16;;;;;;;33.63;6.32;;;;;;;;;;5081662;28;20025;-69
2022/03/30 05:22:43;;;;;;;26.63;5.90;;;;;;;;;;5081695;28;20043;-68
2022/03/30 05:25:09;;;;;;;37.28;5.63;;;;;;;;;;5079152;28;20031;-69
2022/03/30 05:27:35;;;;;;;21.73;5.25;;;;;;;;;;5076752;28;20122;-65
2022/03/30 05:30:04;;;;;;;30.63;5.57;;;;;;;;;;5083811;28;20115;-65
2022/03/30 05:32:30;;;;;;;27.45;5.78;;;;;;;;;;5067932;28;20033;-65
2022/03/30 05:34:56;;;;;;;20.23;4.38;;;;;;;;;;5073838;28;20129;-65
2022/03/30 05:37:24;;;;;;;22.02;4.93;;;;;;;;;;5082178;28;20021;-65
2022/03/30 05:39:50;;;;;;;23.10;5.50;;;;;;;;;;5085109;28;20050;-65
2022/03/30 05:42:16;;;;;;;31.15;5.40;;;;;;;;;;5079731;28;20036;-65
2022/03/30 05:44:43;;;;;;;30.05;5.10;;;;;;;;;;5085441;28;20081;-65
2022/03/30 05:47:09;;;;;;;25.85;5.70;;;;;;;;;;5080779;28;20063;-66
2022/03/30 05:49:36;;;;;;;20.83;5.28;;;;;;;;;;5076594;28;20381;-66
2022/03/30 05:52:02;;;;;;;28.00;5.35;;;;;;;;;;5077882;28;20456;-65
2022/03/30 05:54:28;;;;;;;26.70;6.00;;;;;;;;;;5081360;28;20017;-65
2022/03/30 05:57:00;;;;;;;27.23;5.43;;;;;;;;;;5083175;28;20030;-65
2022/03/30 05:59:26;;;;;;;31.08;7.05;;;;;;;;;;5090740;28;20123;-65
2022/03/30 06:01:52;;;;;;;32.35;6.32;;;;;;;;;;5085689;28;20028;-65
2022/03/30 06:04:19;;;;;;;33.58;6.32;;;;;;;;;;5076834;28;20021;-65
2022/03/30 06:06:45;;;;;;;49.10;7.75;;;;;;;;;;5081326;28;20032;-65
2022/03/30 06:09:11;;;;;;;37.65;7.43;;;;;;;;;;5078198;28;20021;-65
2022/03/30 06:11:37;;;;;;;42.95;7.10;;;;;;;;;;5078525;28;20116;-65
2022/03/30 06:14:03;;;;;;;32.70;6.05;;;;;;;;;;5085685;28;20349;-65
2022/03/30 06:16:29;;;;;;;39.50;6.47;;;;;;;;;;5080464;28;20073;-65
2022/03/30 06:18:55;;;;;;;23.25;5.32;;;;;;;;;;5076821;28;20028;-66
2022/03/30 06:21:22;;;;;;;28.88;5.60;;;;;;;;;;5080389;28;20024;-65
2022/03/30 06:23:48;;;;;;;26.05;5.25;;;;;;;;;;5077584;28;20047;-66
2022/03/30 06:26:14;;;;;;;23.83;5.30;;;;;;;;;;5077623;28;20035;-65
2022/03/30 06:28:40;;;;;;;24.58;6.97;;;;;;;;;;5077344;28;20115;-65
2022/03/30 06:31:06;;;;;;;20.33;5.05;;;;;;;;;;5085706;28;20184;-65
2022/03/30 06:33:32;;;;;;;26.02;6.00;;;;;;;;;;5083769;28;20437;-65
2022/03/30 06:35:58;;;;;;;22.27;5.20;;;;;;;;;;5090797;28;20137;-65
2022/03/30 06:38:25;;;;;;;28.92;6.40;;;;;;;;;;5090957;28;20054;-65
2022/03/30 06:40:51;;;;;;;25.38;6.22;;;;;;;;;;5083907;28;20160;-65
2022/03/30 06:43:17;;;;;;;23.98;6.05;;;;;;;;;;5080206;28;20031;-65
2022/03/30 06:45:46;;;;;;;25.40;5.13;;;;;;;;;;5085127;28;20412;-65
2022/03/30 06:48:12;;;;;;;26.52;6.65;;;;;;;;;;5074241;28;20028;-65
2022/03/30 06:50:39;;;;;;;26.30;6.60;;;;;;;;;;5084425;28;20031;-65
2022/03/30 06:53:10;;;;;;;16.20;5.22;;;;;;;;;;5086466;28;20020;-65
2022/03/30 06:55:38;;;;;;;14.02;5.10;;;;;;;;;;5081388;28;20039;-65
2022/03/30 06:58:04;;;;;;;19.00;5.65;;;;;;;;;;5084051;28;20038;-65
2022/03/30 07:00:30;;;;;;;32.92;6.93;;;;;;;;;;5079383;28;20072;-65
2022/03/30 07:02:56;;;;;;;23.55;6.55;;;;;;;;;;5083094;28;20060;-65
2022/03/30 07:05:22;;;;;;;26.40;5.75;;;;;;;;;;5079997;28;20392;-65
2022/03/30 07:10:33;;;;;;;27.80;6.15;;;;;;;;;;5082268;28;20298;-65
2022/03/30 07:13:03;;;;;;;24.58;5.63;;;;;;;;;;5068152;28;20024;-65
2022/03/30 07:15:31;;;;;;;22.67;6.00;;;;;;;;;;5086166;28;20498;-65
2022/03/30 07:18:01;;;;;;;21.58;5.15;;;;;;;;;;5079448;28;20337;-65
2022/03/30 07:20:27;;;;;;;39.38;7.30;;;;;;;;;;5084322;28;20063;-65
2022/03/30 07:22:54;;;;;;;30.85;6.05;;;;;;;;;;5081944;28;20020;-65
2022/03/30 07:25:20;;;;;;;25.33;6.47;;;;;;;;;;5079208;28;20538;-65
2022/03/30 07:27:47;;;;;;;21.23;6.05;;;;;;;;;;5083405;28;20048;-65
2022/03/30 07:30:14;;;;;;;18.05;4.75;;;;;;;;;;5082655;28;20082;-65
2022/03/30 07:32:41;;;;;;;17.27;5.18;;;;;;;;;;5082171;28;20056;-65
2022/03/30 07:35:08;;;;;;;23.35;6.10;;;;;;;;;;5080932;28;20028;-65
2022/03/30 07:37:34;;;;;;;31.30;7.45;;;;;;;;;;5079069;28;20036;-65
2022/03/30 07:40:02;;;;;;;41.38;7.22;;;;;;;;;;5081488;28;20115;-65
2022/03/30 07:42:28;;;;;;;23.20;5.93;;;;;;;;;;5079776;28;20029;-65
2022/03/30 07:44:54;;;;;;;15.43;5.45;;;;;;;;;;5078365;28;20085;-65
2022/03/30 07:47:21;;;;;;;38.45;6.85;;;;;;;;;;5078873;28;20012;-64
2022/03/30 07:49:47;;;;;;;16.85;5.50;;;;;;;;;;5071691;28;20493;-65
2022/03/30 07:52:13;;;;;;;24.95;5.85;;;;;;;;;;5080944;28;20055;-65
2022/03/30 07:54:39;;;;;;;31.92;6.03;;;;;;;;;;5086010;28;20048;-65
2022/03/30 07:57:05;;;;;;;23.15;5.47;;;;;;;;;;5070542;28;20037;-65
2022/03/30 07:59:31;;;;;;;28.40;6.45;;;;;;;;;;5091802;28;20032;-65
2022/03/30 08:01:58;;;;;;;21.02;4.60;;;;;;;;;;5071111;28;20028;-65
2022/03/30 08:04:24;;;;;;;13.23;4.32;;;;;;;;;;5078055;28;20031;-65
2022/03/30 08:06:50;;;;;;;20.13;4.60;;;;;;;;;;5093908;28;20125;-65
2022/03/30 08:09:16;;;;;;;18.00;5.78;;;;;;;;;;5094187;28;20461;-65
2022/03/30 08:11:42;;;;;;;28.73;5.47;;;;;;;;;;5091680;28;20035;-65
2022/03/30 08:14:09;;;;;;;19.05;5.07;;;;;;;;;;5088148;28;20028;-66
2022/03/30 08:16:35;;;;;;;26.35;5.65;;;;;;;;;;5079237;28;20034;-65
2022/03/30 08:19:01;;;;;;;18.65;5.35;;;;;;;;;;5076025;28;20070;-65
2022/03/30 08:24:12;;;;;;;13.10;5.07;;;;;;;;;;5083058;28;20039;-65
2022/03/30 08:26:39;;;;;;;21.65;5.72;;;;;;;;;;5081303;28;20028;-65
2022/03/30 08:29:06;;;;;;;21.15;5.13;;;;;;;;;;5080679;28;20016;-65
2022/03/30 08:31:33;;;;;;;15.55;5.03;;;;;;;;;;5083578;28;20029;-65
2022/03/30 08:33:59;;;;;;;17.02;4.70;;;;;;;;;;5078726;28;20028;-65
2022/03/30 08:36:29;;;;;;;20.23;5.10;;;;;;;;;;5079667;28;20016;-65
2022/03/30 08:38:55;;;;;;;34.63;5.93;;;;;;;;;;5078921;28;20404;-65
2022/03/30 08:41:21;;;;;;;24.77;6.13;;;;;;;;;;5072754;28;20115;-65
2022/03/30 08:43:48;;;;;;;14.10;4.85;;;;;;;;;;5074191;28;20020;-65
2022/03/30 08:46:14;;;;;;;24.88;5.35;;;;;;;;;;5091786;28;20035;-65
2022/03/30 08:48:40;;;;;;;14.63;4.68;;;;;;;;;;5082145;28;20107;-66
2022/03/30 08:51:07;;;;;;;34.95;6.85;;;;;;;;;;5078550;28;20020;-65
2022/03/30 08:53:33;;;;;;;22.98;5.05;;;;;;;;;;5083697;28;20089;-65
2022/03/30 08:55:59;;;;;;;22.50;5.43;;;;;;;;;;5075870;28;20028;-65
2022/03/30 08:58:25;;;;;;;14.48;4.53;;;;;;;;;;5079758;28;20065;-65
2022/03/30 09:00:52;;;;;;;28.15;6.85;;;;;;;;;;5086424;28;20500;-66
2022/03/30 09:03:18;;;;;;;21.33;6.10;;;;;;;;;;5081168;28;20069;-65
2022/03/30 09:05:44;;;;;;;28.55;5.18;;;;;;;;;;5078237;28;20020;-66
2022/03/30 09:08:15;;;;;;;29.75;6.13;;;;;;;;;;5081077;28;20123;-65
2022/03/30 09:10:42;;;;;;;20.02;5.40;;;;;;;;;;5088550;28;20023;-65
2022/03/30 09:13:09;;;;;;;31.25;6.82;;;;;;;;;;5079517;28;20497;-66
2022/03/30 09:15:35;;;;;;;33.97;6.03;;;;;;;;;;5085522;28;20020;-65
2022/03/30 09:18:04;;;;;;;23.50;5.72;;;;;;;;;;5074626;28;20034;-65
2022/03/30 09:20:31;;;;;;;40.50;7.38;;;;;;;;;;5080407;28;20215;-65
2022/03/30 09:22:58;;;;;;;21.30;5.78;;;;;;;;;;5073421;28;20049;-65
2022/03/30 09:25:26;;;;;;;34.15;5.70;;;;;;;;;;5077816;28;20024;-65
2022/03/30 09:27:53;;;;;;;22.73;4.95;;;;;;;;;;5081716;28;20039;-65
2022/03/30 09:30:19;;;;;;;23.27;5.65;;;;;;;;;;5079272;28;20016;-65
2022/03/30 09:32:46;;;;;;;23.10;4.32;;;;;;;;;;5080100;28;20024;-65
2022/03/30 09:35:27;;;;;;;21.95;5.20;;;;;;;;;;5079645;28;20052;-65
2022/03/30 09:38:03;;;;;;;22.60;5.32;;;;;;;;;;5080150;28;20020;-65
2022/03/30 09:40:36;;;;;;;17.95;5.40;;;;;;;;;;5081030;28;20043;-65
2022/03/30 09:43:10;;;;;;;26.48;4.57;;;;;;;;;;5086091;28;20064;-65
2022/03/30 09:45:36;;;;;;;20.90;4.97;;;;;;;;;;5064855;28;20377;-65
2022/03/30 09:48:10;;;;;;;20.05;5.10;;;;;;;;;;5081843;28;20032;-65
2022/03/30 09:50:41;;;;;;;23.50;5.65;;;;;;;;;;5082286;28;20067;-65
2022/03/30 09:53:14;;;;;;;6.50;2.08;;;;;;;;;;5082513;28;20024;-65
2022/03/30 09:55:53;;;;;;;12.95;4.28;;;;;;;;;;5085610;28;20032;-66
2022/03/30 09:58:20;;;;;;;27.95;7.32;;;;;;;;;;5078773;28;20028;-66
2022/03/30 10:00:52;;;;;;;18.00;4.97;;;;;;;;;;5081883;28;20165;-66
2022/03/30 10:03:18;;;;;;;21.70;5.85;;;;;;;;;;5077319;28;20028;-66
2022/03/30 10:05:44;;;;;;;21.38;5.13;;;;;;;;;;5081326;28;20106;-66
2022/03/30 10:08:10;;;;;;;16.38;5.78;;;;;;;;;;5069029;28;20029;-66
2022/03/30 10:10:36;;;;;;;21.55;5.47;;;;;;;;;;5069298;28;20469;-65
2022/03/30 10:13:02;;;;;;;23.75;5.07;;;;;;;;;;5073118;28;20112;-65
2022/03/30 10:15:29;;;;;;;26.90;5.57;;;;;;;;;;5081500;28;20344;-65
2022/03/30 10:17:55;;;;;;;14.15;3.67;;;;;;;;;;5082877;28;20021;-65
2022/03/30 10:20:21;;;;;;;17.20;4.70;;;;;;;;;;5084544;28;20039;-65
2022/03/30 10:22:53;;;;;;;22.38;5.03;;;;;;;;;;5081250;28;20032;-65
2022/03/30 10:25:34;;;;;;;25.20;6.13;;;;;;;;;;5081596;28;20020;-65
2022/03/30 10:28:16;;;;;;;15.07;3.92;;;;;;;;;;5080152;28;20051;-65
2022/03/30 10:30:43;;;;;;;12.68;3.78;;;;;;;;;;5084535;28;20403;-65
2022/03/30 10:33:10;;;;;;;23.08;5.55;;;;;;;;;;5075714;28;20078;-66
2022/03/30 10:35:39;;;;;;;25.58;5.20;;;;;;;;;;5083863;28;20104;-66
2022/03/30 10:38:05;;;;;;;15.65;5.03;;;;;;;;;;5081227;28;20119;-65
2022/03/30 10:40:31;;;;;;;35.15;5.13;;;;;;;;;;5077320;28;20044;-65
2022/03/30 10:42:58;;;;;;;20.70;5.93;;;;;;;;;;5086951;28;20027;-65
2022/03/30 10:45:44;;;;;;;15.55;4.03;;;;;;;;;;5095567;28;20021;-65
2022/03/30 10:48:17;;;;;;;26.45;5.80;;;;;;;;;;5084875;28;20563;-65
2022/03/30 10:50:51;;;;;;;9.63;3.97;;;;;;;;;;5081211;28;20183;-65
2022/03/30 10:53:32;;;;;;;12.48;4.05;;;;;;;;;;5088431;28;20027;-65
2022/03/30 10:56:07;;;;;;;7.15;2.35;;;;;;;;;;5064411;28;20504;-65
2022/03/30 10:58:33;;;;;;;12.90;4.15;;;;;;;;;;5082015;28;20314;-65
2022/03/30 11:01:26;;;;;;;11.85;4.13;;;;;;;;;;5081673;28;20546;-65
2022/03/30 11:04:02;;;;;;;15.00;5.13;;;;;;;;;;5081765;28;20599;-65
2022/03/30 11:06:29;;;;;;;8.68;3.65;;;;;;;;;;5083959;28;20024;-65
2022/03/30 11:08:56;;;;;;;15.05;4.07;;;;;;;;;;5081783;28;20028;-65
2022/03/30 11:11:26;;;;;;;11.18;3.55;;;;;;;;;;5080046;28;20024;-65
2022/03/30 11:14:11;;;;;;;3.53;1.48;;;;;;;;;;5082542;28;20064;-65
2022/03/30 11:16:48;;;;;;;17.38;5.05;;;;;;;;;;5084657;28;20071;-65
2022/03/30 11:19:14;;;;;;;13.70;3.35;;;;;;;;;;5074827;28;20055;-65
2022/03/30 11:21:40;;;;;;;8.45;2.53;;;;;;;;;;5093053;28;20028;-65
2022/03/30 11:24:11;;;;;;;23.15;4.43;;;;;;;;;;5089074;28;20105;-65
2022/03/30 11:26:50;;;;;;;11.05;2.83;;;;;;;;;;5085142;28;20024;-65
2022/03/30 11:29:55;;;;;;;16.60;4.78;;;;;;;;;;5087601;28;20115;-65
2022/03/30 11:32:24;;;;;;;15.57;4.25;;;;;;;;;;4987846;28;20038;-65
2022/03/30 11:34:57;;;;;;;14.68;3.28;;;;;;;;;;5007800;28;20026;-65
2022/03/30 11:37:53;;;;;;;10.98;3.42;;;;;;;;;;4991939;28;20073;-65
2022/03/30 11:40:21;;;;;;;9.23;3.42;;;;;;;;;;4941432;29;20073;-65
2022/03/30 11:42:48;;;;;;;6.80;3.22;;;;;;;;;;4947898;28;20062;-65
2022/03/30 11:45:18;;;;;;;15.43;4.03;;;;;;;;;;4952003;28;20045;-65
2022/03/30 11:47:47;;;;;;;12.40;3.60;;;;;;;;;;4949039;28;20122;-65
2022/03/30 11:50:15;;;;;;;17.50;4.35;;;;;;;;;;4948922;28;20032;-66
2022/03/30 11:52:42;;;;;;;15.35;3.92;;;;;;;;;;4949877;28;20044;-65
2022/03/30 11:55:09;;;;;;;10.88;3.67;;;;;;;;;;4951371;29;20030;-65
2022/03/30 11:57:39;;;;;;;9.82;3.50;;;;;;;;;;4936154;29;20047;-65
2022/03/30 12:00:09;;;;;;;10.05;3.03;;;;;;;;;;4936518;29;20060;-65
2022/03/30 12:02:39;;;;;;;2.70;1.30;;;;;;;;;;4963333;28;20121;-65
2022/03/30 12:05:07;;;;;;;9.30;3.60;;;;;;;;;;4988439;28;20122;-65
2022/03/30 12:07:34;;;;;;;10.10;3.08;;;;;;;;;;4979488;28;20046;-65
2022/03/30 12:10:02;;;;;;;13.70;3.65;;;;;;;;;;4979336;28;20032;-65
2022/03/30 12:12:41;;;;;;;9.02;3.38;;;;;;;;;;4972600;28;20318;-65
2022/03/30 12:15:28;;;;;;;11.75;3.50;;;;;;;;;;4975505;28;20403;-65
2022/03/30 12:17:58;;;;;;;14.90;2.65;;;;;;;;;;5083143;28;20028;-65
2022/03/30 12:20:28;;;;;;;16.67;3.33;;;;;;;;;;5106557;28;20044;-65
2022/03/30 12:22:58;;;;;;;10.07;3.08;;;;;;;;;;5086294;28;20074;-65
2022/03/30 12:25:24;;;;;;;;;;;;;;;;;;5089081;28;20293;-65
2022/03/30 12:27:50;;;;;;;10.68;4.13;;;;;;;;;;5070938;28;19999;-66
2022/03/30 12:30:16;;;;;;;17.27;4.82;;;;;;;;;;5076013;28;20017;-65
2022/03/30 12:32:42;;;;;;;12.43;3.70;;;;;;;;;;5073927;28;20409;-65
2022/03/30 12:35:16;;;;;;;5.95;3.20;;;;;;;;;;5084709;28;20024;-65
2022/03/30 12:37:46;;;;;;;12.75;3.08;;;;;;;;;;5078237;28;20028;-65
2022/03/30 12:40:13;;;;;;;10.93;3.45;;;;;;;;;;5081680;28;20074;-65
2022/03/30 12:42:40;;;;;;;13.07;4.07;;;;;;;;;;5078875;28;20037;-65
2022/03/30 12:45:11;;;;;;;10.32;4.00;;;;;;;;;;5085051;28;20020;-65
2022/03/30 12:47:38;;;;;;;10.40;4.13;;;;;;;;;;5095630;28;20038;-65
2022/03/30 12:50:11;;;;;;;12.80;4.55;;;;;;;;;;5075796;28;20021;-65
2022/03/30 12:52:39;;;;;;;10.70;4.97;;;;;;;;;;5078874;28;20027;-65
2022/03/30 12:55:19;;;;;;;8.68;3.70;;;;;;;;;;5082427;28;20037;-64
2022/03/30 12:57:59;;;;;;;13.75;5.00;;;;;;;;;;5079209;28;20028;-67
2022/03/30 13:00:28;;;;;;;5.05;1.98;;;;;;;;;;5078539;28;20119;-65
2022/03/30 13:03:07;;;;;;;9.70;2.75;;;;;;;;;;5083020;28;20039;-65
2022/03/30 13:05:34;;;;;;;18.92;4.60;;;;;;;;;;5082802;28;20020;-65
2022/03/30 13:08:00;;;;;;;16.30;4.43;;;;;;;;;;5078726;28;20027;-65
2022/03/30 13:10:26;;;;;;;9.07;4.40;;;;;;;;;;5077752;28;20028;-65
2022/03/30 13:12:58;;;;;;;14.13;4.50;;;;;;;;;;5084711;28;20104;-65
2022/03/30 13:15:25;;;;;;;11.55;5.18;;;;;;;;;;5071316;28;20017;-65
2022/03/30 13:18:00;;;;;;;11.63;4.70;;;;;;;;;;5085918;28;20028;-65
2022/03/30 13:20:36;;;;;;;14.18;4.38;;;;;;;;;;5079975;28;20028;-65
2022/03/30 13:23:06;;;;;;;11.90;4.70;;;;;;;;;;5074914;28;20123;-65
2022/03/30 13:25:42;;;;;;;10.18;5.10;;;;;;;;;;5072577;28;20111;-65
2022/03/30 13:28:20;;;;;;;14.43;5.13;;;;;;;;;;5078027;28;20024;-65
2022/03/30 13:30:46;;;;;;;15.55;3.17;;;;;;;;;;5081675;28;20047;-65
2022/03/30 13:33:13;;;;;;;9.02;4.47;;;;;;;;;;5089508;28;20047;-65
2022/03/30 13:35:39;;;;;;;8.35;3.95;;;;;;;;;;5076973;28;20397;-65
2022/03/30 13:38:15;;;;;;;11.00;3.92;;;;;;;;;;5078265;28;20032;-65
2022/03/30 13:40:41;;;;;;;9.85;4.40;;;;;;;;;;5068496;28;20083;-66
2022/03/30 13:43:07;;;;;;;11.88;5.18;;;;;;;;;;5082369;28;20116;-65
2022/03/30 13:45:33;;;;;;;14.40;4.38;;;;;;;;;;5086521;28;20020;-65
2022/03/30 13:47:59;;;;;;;7.70;3.58;;;;;;;;;;5085593;28;20032;-65
2022/03/30 13:50:26;;;;;;;14.45;4.75;;;;;;;;;;5073832;28;20013;-65
2022/03/30 13:52:52;;;;;;;9.52;4.55;;;;;;;;;;5082291;28;20100;-64
2022/03/30 13:55:20;;;;;;;7.00;3.13;;;;;;;;;;5073082;28;20029;-65
2022/03/30 13:57:46;;;;;;;2.05;1.42;;;;;;;;;;5085282;28;20484;-66
2022/03/30 14:00:12;;;;;;;6.78;3.75;;;;;;;;;;5073757;28;20037;-66
2022/03/30 14:02:38;;;;;;;13.45;4.50;;;;;;;;;;5083773;28;20035;-65
2022/03/30 14:08:10;;;;;;;12.25;3.92;;;;;;;;;;5033246;28;20040;-65
2022/03/30 14:10:36;;;;;;;6.22;2.70;;;;;;;;;;5077983;28;20039;-65
2022/03/30 14:13:02;;;;;;;17.52;4.40;;;;;;;;;;5087879;28;20031;-66
2022/03/30 14:15:30;;;;;;;12.15;2.70;;;;;;;;;;5085533;28;20028;-65
2022/03/30 14:17:56;;;;;;;9.75;3.47;;;;;;;;;;5077488;28;20040;-66
2022/03/30 14:20:22;;;;;;;8.30;3.85;;;;;;;;;;5082070;28;20029;-65
2022/03/30 14:22:49;;;;;;;15.23;3.83;;;;;;;;;;5085014;28;20461;-65
2022/03/30 14:25:16;;;;;;;9.73;3.30;;;;;;;;;;5086847;28;20024;-65
2022/03/30 14:27:43;;;;;;;6.05;3.92;;;;;;;;;;5090223;28;20016;-66
2022/03/30 14:30:11;;;;;;;6.47;2.75;;;;;;;;;;5089655;28;20036;-66
2022/03/30 14:32:38;;;;;;;8.98;3.08;;;;;;;;;;5089703;28;20047;-65
2022/03/30 14:35:05;;;;;;;8.68;3.92;;;;;;;;;;5064596;28;20054;-65
2022/03/30 14:37:31;;;;;;;17.20;4.43;;;;;;;;;;5085244;28;20036;-65
2022/03/30 14:39:59;;;;;;;17.65;3.90;;;;;;;;;;5076959;28;20036;-65
2022/03/30 15:13:54;;;;;;;9.88;4.80;;;;;;;;;;5075940;28;20477;-65
2022/03/30 15:16:20;;;;;;;9.18;4.07;;;;;;;;;;5084637;28;20449;-65
2022/03/30 15:18:47;;;;;;;17.33;4.43;;;;;;;;;;5093597;28;20031;-65
2022/03/30 15:21:15;;;;;;;10.88;4.70;;;;;;;;;;5094742;28;20065;-65
2022/03/30 15:23:52;;;;;;;14.88;4.60;;;;;;;;;;5076621;28;20051;-65
2022/03/30 15:26:56;;;;;;;12.32;5.60;;;;;;;;;;5052418;28;20029;-65